createdAt,value
2023-02-19T00:00:32.441Z,10.48
2023-02-19T00:01:40.938Z,9.45
2023-02-19T00:02:43.833Z,11.02
2023-02-19T00:03:52.543Z,12.02
2023-02-19T00:04:55.334Z,10.38
2023-02-19T00:06:01.488Z,11.05
2023-02-19T00:07:04.313Z,11.77
2023-02-19T00:08:07.159Z,11.25
2023-02-19T00:09:11.730Z,10.13
2023-02-19T00:10:14.569Z,9.60
2023-02-19T00:11:26.169Z,13.02
2023-02-19T00:12:29.120Z,11.52
2023-02-19T00:13:32.165Z,12.13
2023-02-19T00:14:35.033Z,12.77
2023-02-19T00:15:37.813Z,12.15
2023-02-19T00:16:40.922Z,11.73
2023-02-19T00:17:43.747Z,13.27
2023-02-19T00:18:47.282Z,10.63
2023-02-19T00:19:50.053Z,12.30
2023-02-19T00:20:52.884Z,9.50
2023-02-19T00:21:55.670Z,12.50
2023-02-19T00:22:58.891Z,12.90
2023-02-19T00:24:04.154Z,11.77
2023-02-19T00:25:07.000Z,8.48
2023-02-19T00:26:18.442Z,12.05
2023-02-19T00:28:25.841Z,10.98
2023-02-19T00:29:28.766Z,11.55
2023-02-19T00:30:31.893Z,11.65
2023-02-19T00:31:36.440Z,10.55
2023-02-19T00:32:39.328Z,11.88
2023-02-19T00:33:46.577Z,9.85
2023-02-19T00:34:49.387Z,11.10
2023-02-19T00:35:52.290Z,12.18
2023-02-19T00:36:55.448Z,11.82
2023-02-19T00:37:58.300Z,11.25
2023-02-19T00:39:01.150Z,11.30
2023-02-19T00:40:04.178Z,10.32
2023-02-19T00:41:19.378Z,9.77
2023-02-19T00:42:22.809Z,10.73
2023-02-19T00:43:25.576Z,11.18
2023-02-19T00:44:28.994Z,12.10
2023-02-19T00:45:31.734Z,11.68
2023-02-19T00:46:43.479Z,12.98
2023-02-19T00:47:46.400Z,10.82
2023-02-19T00:48:49.699Z,12.10
2023-02-19T00:49:52.482Z,10.70
2023-02-19T00:50:55.256Z,12.55
2023-02-19T00:51:58.199Z,10.52
2023-02-19T00:53:00.998Z,10.52
2023-02-19T00:54:04.938Z,10.00
2023-02-19T00:55:07.959Z,9.85
2023-02-19T00:56:11.535Z,10.50
2023-02-19T00:57:14.532Z,11.52
2023-02-19T00:58:17.326Z,10.82
2023-02-19T00:59:20.194Z,11.50
2023-02-19T01:00:23.090Z,9.90
2023-02-19T01:01:26.006Z,12.57
2023-02-19T01:02:28.815Z,12.70
2023-02-19T01:03:31.872Z,11.88
2023-02-19T01:04:34.659Z,11.48
2023-02-19T01:05:38.501Z,10.48
2023-02-19T01:06:42.101Z,10.70
2023-02-19T01:07:45.022Z,10.00
2023-02-19T01:08:47.964Z,9.52
2023-02-19T01:09:50.835Z,11.48
2023-02-19T01:10:53.909Z,10.18
2023-02-19T01:11:56.769Z,11.25
2023-02-19T01:12:59.545Z,10.20
2023-02-19T01:14:02.774Z,10.60
2023-02-19T01:15:05.777Z,11.23
2023-02-19T01:16:13.870Z,10.32
2023-02-19T01:17:16.766Z,9.68
2023-02-19T01:18:19.654Z,11.30
2023-02-19T01:19:22.465Z,10.02
2023-02-19T01:20:25.871Z,11.63
2023-02-19T01:21:31.082Z,9.25
2023-02-19T01:22:33.866Z,10.82
2023-02-19T01:23:37.221Z,10.80
2023-02-19T01:24:40.084Z,10.40
2023-02-19T01:25:43.205Z,10.43
2023-02-19T01:26:45.987Z,11.00
2023-02-19T01:27:48.908Z,10.73
2023-02-19T01:28:53.314Z,11.40
2023-02-19T01:29:56.258Z,11.95
2023-02-19T01:31:04.263Z,8.98
2023-02-19T01:32:07.244Z,8.70
2023-02-19T01:33:10.925Z,12.45
2023-02-19T01:34:13.787Z,9.15
2023-02-19T01:35:16.780Z,11.40
2023-02-19T01:36:19.999Z,11.88
2023-02-19T01:37:22.820Z,10.68
2023-02-19T01:38:26.237Z,11.05
2023-02-19T01:39:29.116Z,9.88
2023-02-19T01:40:31.940Z,11.43
2023-02-19T01:41:39.785Z,10.40
2023-02-19T01:42:45.634Z,10.27
2023-02-19T01:44:08.240Z,10.73
2023-02-19T01:45:31.534Z,10.75
2023-02-19T01:46:36.277Z,10.57
2023-02-19T01:47:39.064Z,9.93
2023-02-19T01:48:41.987Z,10.88
2023-02-19T01:49:49.019Z,10.98
2023-02-19T01:50:57.948Z,10.90
2023-02-19T01:52:32.110Z,8.05
2023-02-19T01:53:42.166Z,10.75
2023-02-19T01:54:46.330Z,12.10
2023-02-19T01:55:52.282Z,11.15
2023-02-19T01:56:56.228Z,11.27
2023-02-19T01:57:59.570Z,10.63
2023-02-19T01:59:02.780Z,9.55
2023-02-19T02:00:14.895Z,10.77
2023-02-19T02:01:17.668Z,10.10
2023-02-19T02:02:20.651Z,10.55
2023-02-19T02:03:23.812Z,11.48
2023-02-19T02:04:27.456Z,9.20
2023-02-19T02:05:57.877Z,11.00
2023-02-19T02:07:03.321Z,9.93
2023-02-19T02:08:25.216Z,9.73
2023-02-19T02:09:49.369Z,11.55
2023-02-19T02:10:53.187Z,9.68
2023-02-19T02:11:56.024Z,9.25
2023-02-19T02:12:59.310Z,10.57
2023-02-19T02:14:04.573Z,13.32
2023-02-19T02:15:08.441Z,10.18
2023-02-19T02:16:16.861Z,12.05
2023-02-19T02:17:26.691Z,11.27
2023-02-19T02:19:07.915Z,10.40
2023-02-19T02:20:16.285Z,10.30
2023-02-19T02:21:21.781Z,11.68
2023-02-19T02:22:29.721Z,9.68
2023-02-19T02:24:08.875Z,11.32
2023-02-19T02:25:52.142Z,11.48
2023-02-19T02:27:27.828Z,10.48
2023-02-19T02:28:47.161Z,12.65
2023-02-19T02:30:11.562Z,11.02
2023-02-19T02:31:18.752Z,9.98
2023-02-19T02:32:34.877Z,9.15
2023-02-19T02:33:59.579Z,10.27
2023-02-19T02:35:16.080Z,9.98
2023-02-19T02:36:32.153Z,8.60
2023-02-19T02:37:39.061Z,9.55
2023-02-19T02:38:46.826Z,10.02
2023-02-19T02:39:51.471Z,9.73
2023-02-19T02:40:55.687Z,11.27
2023-02-19T02:42:19.109Z,10.10
2023-02-19T02:43:32.059Z,9.27
2023-02-19T02:44:38.328Z,10.38
2023-02-19T02:45:41.928Z,8.60
2023-02-19T02:47:07.753Z,10.32
2023-02-19T02:48:59.207Z,9.13
2023-02-19T02:50:08.271Z,9.35
2023-02-19T02:51:40.695Z,8.68
2023-02-19T02:53:20.843Z,9.73
2023-02-19T02:54:51.944Z,8.48
2023-02-19T02:55:57.918Z,8.32
2023-02-19T02:57:02.412Z,9.45
2023-02-19T02:58:09.905Z,9.82
2023-02-19T02:59:14.451Z,9.38
2023-02-19T03:00:17.427Z,8.60
2023-02-19T03:01:52.173Z,10.10
2023-02-19T03:02:56.932Z,9.65
2023-02-19T03:04:09.567Z,8.68
2023-02-19T03:05:41.914Z,8.20
2023-02-19T03:06:48.027Z,8.85
2023-02-19T03:07:57.386Z,8.52
2023-02-19T03:09:14.923Z,8.50
2023-02-19T03:10:23.625Z,9.13
2023-02-19T03:11:45.641Z,8.13
2023-02-19T03:13:09.637Z,9.05
2023-02-19T03:14:41.510Z,9.70
2023-02-19T03:16:12.397Z,8.30
2023-02-19T03:17:37.587Z,8.65
2023-02-19T03:19:02.485Z,8.88
2023-02-19T03:20:11.189Z,8.35
2023-02-19T03:21:17.556Z,9.07
2023-02-19T03:22:34.325Z,9.00
2023-02-19T03:23:56.264Z,9.75
2023-02-19T03:25:28.116Z,8.82
2023-02-19T03:26:33.482Z,7.82
2023-02-19T03:27:39.300Z,8.30
2023-02-19T03:29:03.610Z,8.93
2023-02-19T03:30:18.781Z,8.18
2023-02-19T03:31:27.079Z,8.85
2023-02-19T03:32:53.899Z,8.05
2023-02-19T03:34:01.286Z,8.30
2023-02-19T03:35:09.737Z,8.10
2023-02-19T03:36:15.984Z,7.95
2023-02-19T03:37:33.401Z,8.48
2023-02-19T03:38:51.232Z,8.43
2023-02-19T03:39:54.801Z,8.15
2023-02-19T03:41:15.959Z,8.50
2023-02-19T03:42:26.697Z,7.47
2023-02-19T03:43:53.982Z,10.07
2023-02-19T03:45:09.139Z,8.85
2023-02-19T03:46:23.492Z,7.50
2023-02-19T03:47:37.621Z,8.95
2023-02-19T03:49:02.029Z,7.57
2023-02-19T03:50:13.658Z,8.57
2023-02-19T03:51:40.669Z,8.32
2023-02-19T03:52:55.939Z,9.32
2023-02-19T03:54:18.706Z,8.32
2023-02-19T03:56:02.707Z,8.02
2023-02-19T03:57:35.552Z,7.45
2023-02-19T03:58:55.468Z,6.88
2023-02-19T04:00:25.812Z,8.02
2023-02-19T04:01:28.608Z,7.75
2023-02-19T04:02:43.305Z,8.70
2023-02-19T04:04:04.767Z,7.13
2023-02-19T04:05:24.802Z,8.88
2023-02-19T04:06:32.138Z,9.82
2023-02-19T04:07:39.720Z,8.68
2023-02-19T04:08:46.559Z,9.00
2023-02-19T04:09:51.594Z,10.30
2023-02-19T04:10:56.219Z,9.05
2023-02-19T04:12:03.007Z,8.30
2023-02-19T04:13:32.291Z,8.50
2023-02-19T04:14:38.510Z,7.60
2023-02-19T04:15:43.815Z,7.85
2023-02-19T04:16:56.042Z,8.85
2023-02-19T04:18:07.772Z,7.68
2023-02-19T04:19:14.475Z,10.15
2023-02-19T04:20:20.198Z,8.40
2023-02-19T04:21:24.381Z,8.05
2023-02-19T04:22:27.602Z,8.02
2023-02-19T04:23:36.885Z,8.25
2023-02-19T04:24:46.197Z,7.97
2023-02-19T04:25:52.470Z,8.80
2023-02-19T04:26:56.321Z,8.90
2023-02-19T04:27:59.629Z,7.35
2023-02-19T04:29:02.695Z,8.52
2023-02-19T04:30:08.611Z,7.80
2023-02-19T04:31:12.289Z,7.53
2023-02-19T04:32:15.581Z,8.75
2023-02-19T04:33:18.389Z,8.95
2023-02-19T04:34:21.243Z,7.70
2023-02-19T04:35:24.106Z,9.43
2023-02-19T04:36:26.951Z,9.70
2023-02-19T04:37:29.786Z,9.25
2023-02-19T04:38:32.647Z,9.50
2023-02-19T04:39:37.782Z,8.25
2023-02-19T04:40:40.653Z,7.85
2023-02-19T04:41:43.495Z,7.85
2023-02-19T04:42:46.315Z,7.50
2023-02-19T04:43:49.130Z,8.75
2023-02-19T04:44:54.558Z,8.25
2023-02-19T04:46:01.980Z,9.15
2023-02-19T04:47:04.921Z,8.65
2023-02-19T04:48:07.687Z,9.68
2023-02-19T04:49:10.741Z,9.82
2023-02-19T04:50:13.907Z,8.82
2023-02-19T04:51:22.173Z,9.30
2023-02-19T04:52:25.069Z,8.02
2023-02-19T04:53:28.037Z,8.73
2023-02-19T04:54:30.786Z,7.78
2023-02-19T04:55:37.450Z,8.90
2023-02-19T04:56:40.378Z,8.05
2023-02-19T04:57:43.216Z,7.88
2023-02-19T04:58:49.386Z,8.52
2023-02-19T04:59:52.208Z,8.98
2023-02-19T05:00:55.081Z,8.63
2023-02-19T05:01:58.319Z,8.82
2023-02-19T05:03:01.987Z,8.43
2023-02-19T05:04:05.559Z,8.27
2023-02-19T05:05:08.569Z,9.63
2023-02-19T05:06:16.373Z,8.93
2023-02-19T05:07:19.192Z,8.13
2023-02-19T05:08:22.082Z,7.00
2023-02-19T05:09:24.947Z,7.72
2023-02-19T05:10:29.211Z,7.55
2023-02-19T05:11:35.580Z,7.53
2023-02-19T05:12:41.568Z,8.73
2023-02-19T05:13:44.536Z,7.47
2023-02-19T05:14:47.371Z,9.50
2023-02-19T05:16:01.782Z,8.07
2023-02-19T05:17:04.739Z,8.95
2023-02-19T05:18:07.541Z,8.65
2023-02-19T05:19:13.623Z,6.72
2023-02-19T05:20:16.454Z,9.70
2023-02-19T05:21:21.807Z,7.53
2023-02-19T05:22:24.787Z,7.78
2023-02-19T05:23:28.529Z,8.27
2023-02-19T05:24:31.858Z,7.80
2023-02-19T05:25:35.388Z,7.72
2023-02-19T05:26:38.230Z,6.50
2023-02-19T05:27:41.000Z,8.32
2023-02-19T05:28:48.314Z,10.07
2023-02-19T05:29:53.521Z,8.18
2023-02-19T05:30:57.883Z,8.77
2023-02-19T05:32:00.862Z,7.80
2023-02-19T05:33:04.079Z,7.78
2023-02-19T05:34:06.953Z,8.07
2023-02-19T05:35:09.947Z,7.38
2023-02-19T05:36:14.260Z,7.97
2023-02-19T05:37:20.213Z,8.15
2023-02-19T05:38:23.754Z,8.00
2023-02-19T05:39:26.749Z,7.00
2023-02-19T05:40:29.600Z,9.65
2023-02-19T05:41:32.506Z,6.40
2023-02-19T05:42:35.312Z,7.97
2023-02-19T05:43:39.335Z,6.97
2023-02-19T05:44:42.918Z,6.80
2023-02-19T05:45:45.722Z,6.53
2023-02-19T05:46:48.563Z,7.55
2023-02-19T05:47:57.491Z,7.85
2023-02-19T05:49:00.380Z,8.40
2023-02-19T05:50:03.123Z,7.65
2023-02-19T05:51:14.573Z,7.05
2023-02-19T05:52:17.330Z,6.60
2023-02-19T05:53:20.227Z,6.38
2023-02-19T05:54:25.502Z,6.35
2023-02-19T05:55:29.626Z,7.15
2023-02-19T05:56:36.372Z,7.85
2023-02-19T05:57:49.709Z,6.55
2023-02-19T05:58:53.225Z,6.45
2023-02-19T05:59:57.131Z,8.13
2023-02-19T06:00:59.915Z,7.15
2023-02-19T06:02:02.915Z,7.53
2023-02-19T06:03:05.668Z,6.10
2023-02-19T06:04:10.721Z,6.70
2023-02-19T06:05:14.658Z,6.57
2023-02-19T06:06:19.084Z,6.90
2023-02-19T06:07:21.799Z,7.82
2023-02-19T06:08:24.602Z,6.80
2023-02-19T06:09:27.408Z,7.53
2023-02-19T06:10:30.373Z,7.15
2023-02-19T06:11:33.440Z,6.30
2023-02-19T06:12:36.214Z,7.32
2023-02-19T06:13:38.941Z,6.50
2023-02-19T06:14:41.776Z,7.93
2023-02-19T06:15:44.533Z,7.32
2023-02-19T06:16:47.296Z,7.55
2023-02-19T06:17:50.096Z,6.22
2023-02-19T06:18:53.026Z,7.15
2023-02-19T06:19:55.853Z,6.50
2023-02-19T06:21:02.644Z,6.80
2023-02-19T06:22:08.189Z,5.35
2023-02-19T06:23:11.058Z,7.97
2023-02-19T06:24:16.378Z,6.97
2023-02-19T06:25:20.017Z,7.80
2023-02-19T06:26:24.592Z,5.78
2023-02-19T06:27:28.433Z,6.32
2023-02-19T06:28:31.184Z,6.57
2023-02-19T06:29:34.492Z,6.88
2023-02-19T06:30:37.409Z,5.43
2023-02-19T06:31:40.366Z,6.57
2023-02-19T06:32:43.233Z,7.20
2023-02-19T06:33:46.418Z,7.00
2023-02-19T06:34:49.286Z,6.60
2023-02-19T06:35:52.168Z,5.75
2023-02-19T06:36:55.019Z,6.65
2023-02-19T06:37:57.922Z,6.15
2023-02-19T06:39:01.335Z,6.75
2023-02-19T06:40:04.479Z,6.38
2023-02-19T06:41:09.215Z,6.55
2023-02-19T06:42:12.247Z,6.35
2023-02-19T06:43:15.205Z,5.85
2023-02-19T06:44:18.126Z,7.05
2023-02-19T06:45:21.187Z,6.65
2023-02-19T06:46:24.331Z,7.28
2023-02-19T06:47:27.339Z,6.00
2023-02-19T06:48:31.975Z,5.85
2023-02-19T06:49:34.729Z,6.78
2023-02-19T06:50:37.516Z,5.97
2023-02-19T06:51:40.670Z,8.73
2023-02-19T06:52:43.766Z,6.13
2023-02-19T06:53:47.096Z,6.60
2023-02-19T06:54:49.961Z,6.57
2023-02-19T06:56:07.060Z,6.60
2023-02-19T06:57:09.999Z,7.78
2023-02-19T06:58:12.835Z,6.55
2023-02-19T06:59:19.489Z,6.43
2023-02-19T07:00:22.357Z,5.70
2023-02-19T07:01:25.300Z,6.07
2023-02-19T07:02:28.040Z,5.78
2023-02-19T07:03:30.930Z,6.32
2023-02-19T07:04:33.827Z,6.35
2023-02-19T07:05:36.744Z,6.03
2023-02-19T07:06:39.966Z,6.05
2023-02-19T07:07:42.726Z,6.15
2023-02-19T07:08:45.604Z,5.88
2023-02-19T07:09:48.419Z,6.07
2023-02-19T07:10:58.838Z,5.32
2023-02-19T07:12:01.783Z,5.97
2023-02-19T07:13:04.888Z,5.38
2023-02-19T07:14:09.337Z,5.85
2023-02-19T07:15:12.269Z,6.97
2023-02-19T07:16:15.717Z,5.53
2023-02-19T07:17:19.055Z,6.30
2023-02-19T07:18:21.833Z,7.88
2023-02-19T07:19:24.736Z,5.78
2023-02-19T07:20:27.898Z,6.80
2023-02-19T07:21:31.324Z,6.35
2023-02-19T07:22:34.173Z,5.75
2023-02-19T07:23:37.484Z,5.10
2023-02-19T07:24:40.403Z,6.68
2023-02-19T07:25:43.202Z,4.97
2023-02-19T07:26:46.044Z,5.82
2023-02-19T07:27:48.998Z,6.25
2023-02-19T07:28:52.728Z,5.13
2023-02-19T07:29:55.541Z,6.95
2023-02-19T07:31:02.804Z,6.47
2023-02-19T07:32:05.683Z,5.32
2023-02-19T07:33:10.453Z,5.80
2023-02-19T07:34:13.423Z,6.88
2023-02-19T07:35:16.296Z,5.28
2023-02-19T07:36:20.490Z,5.22
2023-02-19T07:37:23.456Z,5.72
2023-02-19T07:38:27.117Z,4.60
2023-02-19T07:39:29.957Z,5.47
2023-02-19T07:40:32.744Z,4.97
2023-02-19T07:41:35.731Z,4.60
2023-02-19T07:42:38.536Z,6.07
2023-02-19T07:43:41.933Z,5.55
2023-02-19T07:44:44.698Z,4.93
2023-02-19T07:45:47.759Z,4.70
2023-02-19T07:46:50.567Z,6.20
2023-02-19T07:47:53.493Z,6.32
2023-02-19T07:48:56.314Z,5.82
2023-02-19T07:50:02.564Z,5.70
2023-02-19T07:51:06.978Z,4.95
2023-02-19T07:52:10.011Z,4.63
2023-02-19T07:53:12.834Z,4.78
2023-02-19T07:54:15.687Z,5.50
2023-02-19T07:55:18.433Z,5.22
2023-02-19T07:56:21.684Z,5.05
2023-02-19T07:57:24.596Z,5.78
2023-02-19T07:58:27.432Z,4.70
2023-02-19T07:59:30.191Z,5.32
2023-02-19T08:00:33.068Z,5.18
2023-02-19T08:01:54.413Z,4.78
2023-02-19T08:03:03.527Z,4.32
2023-02-19T08:04:06.408Z,4.38
2023-02-19T08:05:09.324Z,4.80
2023-02-19T08:06:12.719Z,5.03
2023-02-19T08:07:15.532Z,5.28
2023-02-19T08:08:18.683Z,5.85
2023-02-19T08:09:21.542Z,5.68
2023-02-19T08:10:54.438Z,5.07
2023-02-19T08:12:15.886Z,5.85
2023-02-19T08:13:28.636Z,4.32
2023-02-19T08:14:31.652Z,4.97
2023-02-19T08:15:34.334Z,4.57
2023-02-19T08:16:43.278Z,7.68
2023-02-19T08:17:46.332Z,5.65
2023-02-19T08:18:49.744Z,4.65
2023-02-19T08:19:52.669Z,5.32
2023-02-19T08:20:56.623Z,5.35
2023-02-19T08:21:59.931Z,5.03
2023-02-19T08:23:02.901Z,4.85
2023-02-19T08:24:06.104Z,4.88
2023-02-19T08:25:09.138Z,5.53
2023-02-19T08:26:12.159Z,4.47
2023-02-19T08:27:14.938Z,4.88
2023-02-19T08:28:18.843Z,4.25
2023-02-19T08:29:21.692Z,4.57
2023-02-19T08:30:24.652Z,5.32
2023-02-19T08:31:27.862Z,5.13
2023-02-19T08:32:30.730Z,5.22
2023-02-19T08:33:33.714Z,5.13
2023-02-19T08:34:37.331Z,5.30
2023-02-19T08:35:40.439Z,6.35
2023-02-19T08:36:44.458Z,5.43
2023-02-19T08:37:47.278Z,5.53
2023-02-19T08:38:50.057Z,6.35
2023-02-19T08:39:53.032Z,5.88
2023-02-19T08:40:55.806Z,4.93
2023-02-19T08:41:59.237Z,7.00
2023-02-19T08:43:19.829Z,6.13
2023-02-19T08:44:25.656Z,6.10
2023-02-19T08:45:28.609Z,5.72
2023-02-19T08:46:33.040Z,5.78
2023-02-19T08:47:37.488Z,5.43
2023-02-19T08:48:40.573Z,5.30
2023-02-19T08:49:45.963Z,5.95
2023-02-19T08:51:00.183Z,6.80
2023-02-19T08:52:03.038Z,7.10
2023-02-19T08:53:07.120Z,5.13
2023-02-19T08:54:09.865Z,6.07
2023-02-19T08:55:12.634Z,7.28
2023-02-19T08:56:17.756Z,6.57
2023-02-19T08:57:23.249Z,6.47
2023-02-19T08:58:29.391Z,5.95
2023-02-19T08:59:32.531Z,5.80
2023-02-19T09:00:35.318Z,5.28
2023-02-19T09:01:38.213Z,6.30
2023-02-19T09:02:41.667Z,5.65
2023-02-19T09:03:44.892Z,9.60
2023-02-19T09:04:47.999Z,6.32
2023-02-19T09:05:50.972Z,6.40
2023-02-19T09:06:54.156Z,4.00
2023-02-19T09:07:57.634Z,5.68
2023-02-19T09:09:00.434Z,5.97
2023-02-19T09:10:03.725Z,10.40
2023-02-19T09:11:07.417Z,5.88
2023-02-19T09:12:12.820Z,5.60
2023-02-19T09:13:15.598Z,6.00
2023-02-19T09:14:18.458Z,6.82
2023-02-19T09:15:21.324Z,6.35
2023-02-19T09:16:24.262Z,5.85
2023-02-19T09:17:28.019Z,6.72
2023-02-19T09:18:30.920Z,5.88
2023-02-19T09:19:34.165Z,7.68
2023-02-19T09:20:36.975Z,5.53
2023-02-19T09:21:39.857Z,4.28
2023-02-19T09:22:42.741Z,6.82
2023-02-19T09:23:45.650Z,5.30
2023-02-19T09:24:48.555Z,5.65
2023-02-19T09:25:57.964Z,6.32
2023-02-19T09:27:00.862Z,6.47
2023-02-19T09:28:03.838Z,5.00
2023-02-19T09:29:09.712Z,5.90
2023-02-19T09:30:12.876Z,6.50
2023-02-19T09:31:17.083Z,5.78
2023-02-19T09:32:19.944Z,6.10
2023-02-19T09:33:22.951Z,6.70
2023-02-19T09:34:27.061Z,8.38
2023-02-19T09:35:29.931Z,6.47
2023-02-19T09:36:33.970Z,7.40
2023-02-19T09:37:36.868Z,7.85
2023-02-19T09:38:40.868Z,6.35
2023-02-19T09:39:43.723Z,6.15
2023-02-19T09:40:46.561Z,7.85
2023-02-19T09:41:57.400Z,7.05
2023-02-19T09:43:01.637Z,6.90
2023-02-19T09:44:14.742Z,5.93
2023-02-19T09:45:25.330Z,7.18
2023-02-19T09:46:33.151Z,6.55
2023-02-19T09:47:36.464Z,6.18
2023-02-19T09:48:39.267Z,8.43
2023-02-19T09:49:52.276Z,6.35
2023-02-19T09:50:57.692Z,6.93
2023-02-19T09:52:08.161Z,5.60
2023-02-19T09:53:19.340Z,8.57
2023-02-19T09:54:27.759Z,6.90
2023-02-19T09:55:43.063Z,5.25
2023-02-19T09:56:45.978Z,6.72
2023-02-19T09:57:50.537Z,7.80
2023-02-19T09:58:55.699Z,7.25
2023-02-19T10:00:10.638Z,7.85
2023-02-19T10:01:14.316Z,6.72
2023-02-19T10:02:23.467Z,5.78
2023-02-19T10:03:47.387Z,8.48
2023-02-19T10:04:52.516Z,8.25
2023-02-19T10:06:20.660Z,6.07
2023-02-19T10:07:38.367Z,5.28
2023-02-19T10:08:46.219Z,7.10
2023-02-19T10:10:16.071Z,6.43
2023-02-19T10:11:19.769Z,6.15
2023-02-19T10:12:31.284Z,5.55
2023-02-19T10:13:42.651Z,6.57
2023-02-19T10:14:56.704Z,6.95
2023-02-19T10:16:02.287Z,6.18
2023-02-19T10:17:06.600Z,6.75
2023-02-19T10:18:11.191Z,6.00
2023-02-19T10:19:15.332Z,5.80
2023-02-19T10:20:24.873Z,5.55
2023-02-19T10:21:28.805Z,5.78
2023-02-19T10:22:35.408Z,6.15
2023-02-19T10:23:40.172Z,5.65
2023-02-19T10:24:44.057Z,4.75
2023-02-19T10:25:59.642Z,6.78
2023-02-19T10:27:02.729Z,5.97
2023-02-19T10:28:09.993Z,5.63
2023-02-19T10:29:13.994Z,5.72
2023-02-19T10:30:36.301Z,5.85
2023-02-19T10:31:39.383Z,6.28
2023-02-19T10:33:00.553Z,5.82
2023-02-19T10:34:04.586Z,6.50
2023-02-19T10:35:15.456Z,6.65
2023-02-19T10:36:25.740Z,5.13
2023-02-19T10:37:29.666Z,5.82
2023-02-19T10:38:38.874Z,7.03
2023-02-19T10:39:48.562Z,6.03
2023-02-19T10:41:08.653Z,5.88
2023-02-19T10:42:20.437Z,6.75
2023-02-19T10:43:31.937Z,6.43
2023-02-19T10:44:43.043Z,5.10
2023-02-19T10:45:50.586Z,7.13
2023-02-19T10:46:55.906Z,5.65
2023-02-19T10:47:58.857Z,4.88
2023-02-19T10:49:05.568Z,6.35
2023-02-19T10:50:27.038Z,5.53
2023-02-19T10:51:41.699Z,6.47
2023-02-19T10:52:44.604Z,5.75
2023-02-19T10:53:50.119Z,7.47
2023-02-19T10:55:16.730Z,7.07
2023-02-19T10:56:27.738Z,7.03
2023-02-19T10:57:33.263Z,7.10
2023-02-19T10:58:38.136Z,5.57
2023-02-19T10:59:50.104Z,6.15
2023-02-19T11:01:15.281Z,5.93
2023-02-19T11:02:20.445Z,7.05
2023-02-19T11:03:24.295Z,6.40
2023-02-19T11:04:30.195Z,6.25
2023-02-19T11:05:33.140Z,7.97
2023-02-19T11:06:36.073Z,6.95
2023-02-19T11:07:44.683Z,5.82
2023-02-19T11:08:51.009Z,6.53
2023-02-19T11:10:58.115Z,6.63
2023-02-19T11:12:02.044Z,6.55
2023-02-19T11:13:07.089Z,6.80
2023-02-19T11:14:19.616Z,6.57
2023-02-19T11:15:27.516Z,7.25
2023-02-19T11:16:43.448Z,6.53
2023-02-19T11:17:46.466Z,6.68
2023-02-19T11:18:57.426Z,7.60
2023-02-19T11:20:07.585Z,6.93
2023-02-19T11:21:28.826Z,4.65
2023-02-19T11:22:34.082Z,6.32
2023-02-19T11:23:47.200Z,5.70
2023-02-19T11:24:57.850Z,5.55
2023-02-19T11:26:15.846Z,7.03
2023-02-19T11:27:23.520Z,5.88
2023-02-19T11:28:43.585Z,5.80
2023-02-19T11:29:46.648Z,6.28
2023-02-19T11:30:50.090Z,5.35
2023-02-19T11:31:53.510Z,4.75
2023-02-19T11:32:57.592Z,7.47
2023-02-19T11:34:05.128Z,5.65
2023-02-19T11:35:23.974Z,5.85
2023-02-19T11:36:33.774Z,6.30
2023-02-19T11:37:37.013Z,5.25
2023-02-19T11:38:39.861Z,6.60
2023-02-19T11:39:45.344Z,5.32
2023-02-19T11:40:48.307Z,6.68
2023-02-19T11:42:05.987Z,6.65
2023-02-19T11:43:54.229Z,5.70
2023-02-19T11:45:55.836Z,7.68
2023-02-19T11:47:28.379Z,5.50
2023-02-19T11:48:56.432Z,5.13
2023-02-19T11:50:25.263Z,5.97
2023-02-19T11:51:52.167Z,7.30
2023-02-19T11:53:01.184Z,5.13
2023-02-19T11:54:12.750Z,4.55
2023-02-19T11:55:23.873Z,5.55
2023-02-19T11:56:36.785Z,6.35
2023-02-19T11:57:47.785Z,6.32
2023-02-19T11:59:01.336Z,6.32
2023-02-19T12:00:25.210Z,6.22
2023-02-19T12:01:30.610Z,7.07
2023-02-19T12:02:50.348Z,5.07
2023-02-19T12:04:14.184Z,5.70
2023-02-19T12:05:31.402Z,6.00
2023-02-19T12:06:51.260Z,6.60
2023-02-19T12:08:24.608Z,6.15
2023-02-19T12:09:33.581Z,5.00
2023-02-19T12:10:57.550Z,5.85
2023-02-19T12:12:25.602Z,6.38
2023-02-19T12:13:53.963Z,7.05
2023-02-19T12:15:05.651Z,7.45
2023-02-19T12:16:25.110Z,7.07
2023-02-19T12:17:41.963Z,6.53
2023-02-19T12:19:21.595Z,5.43
2023-02-19T12:20:40.290Z,8.18
2023-02-19T12:21:57.380Z,6.55
2023-02-19T12:23:20.513Z,5.78
2023-02-19T12:25:04.840Z,7.20
2023-02-19T12:26:37.912Z,5.28
2023-02-19T12:27:48.261Z,5.45
2023-02-19T12:29:09.213Z,6.20
2023-02-19T12:30:20.553Z,7.43
2023-02-19T12:31:41.967Z,6.70
2023-02-19T12:33:07.949Z,5.30
2023-02-19T12:34:36.088Z,5.28
2023-02-19T12:35:45.469Z,5.43
2023-02-19T12:37:09.156Z,6.88
2023-02-19T12:38:32.804Z,5.93
2023-02-19T12:39:41.326Z,5.10
2023-02-19T12:41:13.286Z,6.80
2023-02-19T12:42:54.344Z,5.55
2023-02-19T12:44:08.415Z,5.43
2023-02-19T12:45:45.596Z,5.97
2023-02-19T12:46:53.548Z,4.80
2023-02-19T12:48:11.091Z,6.38
2023-02-19T12:49:25.661Z,5.18
2023-02-19T12:50:29.927Z,5.43
2023-02-19T12:52:02.969Z,7.82
2023-02-19T12:53:30.079Z,4.43
2023-02-19T12:54:50.464Z,5.03
2023-02-19T12:55:55.943Z,7.65
2023-02-19T12:57:34.235Z,6.07
2023-02-19T12:58:50.760Z,4.90
2023-02-19T13:00:07.792Z,5.60
2023-02-19T13:01:19.020Z,6.82
2023-02-19T13:02:44.932Z,6.28
2023-02-19T13:04:08.974Z,4.78
2023-02-19T13:05:26.730Z,6.18
2023-02-19T13:07:23.066Z,6.07
2023-02-19T13:08:34.770Z,4.25
2023-02-19T13:09:44.509Z,5.65
2023-02-19T13:10:57.217Z,5.38
2023-02-19T13:12:08.313Z,7.07
2023-02-19T13:13:28.917Z,7.00
2023-02-19T13:15:44.426Z,6.85
2023-02-19T13:16:52.905Z,6.28
2023-02-19T13:18:01.638Z,4.97
2023-02-19T13:19:05.635Z,6.82
2023-02-19T13:20:25.160Z,7.07
2023-02-19T13:21:52.997Z,6.60
2023-02-19T13:23:32.229Z,5.80
2023-02-19T13:24:38.394Z,5.70
2023-02-19T13:26:09.522Z,6.18
2023-02-19T13:27:28.615Z,6.00
2023-02-19T13:29:13.884Z,6.93
2023-02-19T13:30:39.774Z,5.10
2023-02-19T13:31:42.644Z,5.53
2023-02-19T13:33:03.829Z,6.38
2023-02-19T13:34:43.898Z,7.75
2023-02-19T13:35:58.834Z,5.93
2023-02-19T13:37:03.069Z,6.05
2023-02-19T13:38:07.870Z,6.50
2023-02-19T13:40:18.887Z,5.90
2023-02-19T13:41:27.846Z,5.70
2023-02-19T13:42:36.410Z,5.53
2023-02-19T13:43:43.502Z,6.80
2023-02-19T13:44:49.031Z,5.88
2023-02-19T13:46:00.680Z,5.65
2023-02-19T13:47:06.395Z,7.90
2023-02-19T13:48:33.278Z,6.93
2023-02-19T13:49:42.386Z,6.65
2023-02-19T13:50:45.374Z,6.13
2023-02-19T13:52:21.770Z,6.93
2023-02-19T13:53:48.303Z,5.28
2023-02-19T13:54:51.648Z,9.43
2023-02-19T13:55:54.605Z,5.78
2023-02-19T13:57:25.062Z,7.20
2023-02-19T13:58:37.132Z,7.90
2023-02-19T13:59:40.959Z,5.78
2023-02-19T14:00:55.238Z,6.80
2023-02-19T14:01:58.099Z,5.97
2023-02-19T14:03:30.021Z,6.65
2023-02-19T14:04:32.892Z,6.60
2023-02-19T14:06:09.364Z,10.65
2023-02-19T14:07:12.218Z,6.22
2023-02-19T14:08:53.492Z,7.57
2023-02-19T14:09:56.420Z,6.53
2023-02-19T14:11:02.775Z,6.75
2023-02-19T14:12:05.783Z,7.10
2023-02-19T14:13:09.258Z,6.47
2023-02-19T14:14:39.530Z,5.15
2023-02-19T14:15:49.085Z,7.53
2023-02-19T14:16:53.167Z,5.35
2023-02-19T14:17:57.241Z,7.07
2023-02-19T14:19:00.117Z,5.53
2023-02-19T14:20:05.379Z,7.28
2023-02-19T14:21:39.266Z,6.43
2023-02-19T14:22:48.099Z,6.20
2023-02-19T14:23:59.061Z,6.25
2023-02-19T14:25:04.462Z,7.80
2023-02-19T14:26:07.826Z,6.78
2023-02-19T14:27:11.382Z,6.68
2023-02-19T14:28:18.905Z,6.00
2023-02-19T14:30:24.897Z,9.77
2023-02-19T14:31:34.301Z,6.57
2023-02-19T14:32:37.227Z,7.35
2023-02-19T14:33:53.829Z,7.63
2023-02-19T14:34:58.408Z,5.85
2023-02-19T14:36:19.824Z,7.10
2023-02-19T14:37:23.254Z,6.18
2023-02-19T14:38:47.119Z,6.82
2023-02-19T14:39:52.484Z,6.43
2023-02-19T14:40:56.098Z,6.47
2023-02-19T14:42:06.010Z,6.38
2023-02-19T14:43:14.791Z,5.45
2023-02-19T14:44:30.468Z,7.72
2023-02-19T14:45:43.634Z,6.10
2023-02-19T14:47:00.808Z,5.72
2023-02-19T14:48:04.493Z,6.30
2023-02-19T14:49:31.241Z,7.47
2023-02-19T14:50:35.859Z,5.97
2023-02-19T14:51:44.015Z,6.25
2023-02-19T14:52:51.770Z,6.45
2023-02-19T14:53:58.981Z,6.32
2023-02-19T14:55:09.121Z,5.18
2023-02-19T14:56:38.013Z,5.20
2023-02-19T14:57:45.703Z,7.47
2023-02-19T14:59:10.018Z,5.25
2023-02-19T15:00:27.076Z,7.60
2023-02-19T15:01:29.969Z,4.25
2023-02-19T15:02:44.561Z,7.50
2023-02-19T15:03:49.942Z,6.60
2023-02-19T15:04:53.882Z,5.95
2023-02-19T15:06:01.201Z,7.93
2023-02-19T15:08:17.869Z,4.53
2023-02-19T15:09:22.200Z,5.15
2023-02-19T15:10:27.860Z,8.90
2023-02-19T15:11:32.991Z,6.80
2023-02-19T15:12:46.360Z,6.38
2023-02-19T15:15:03.130Z,6.65
2023-02-19T15:16:07.751Z,6.30
2023-02-19T15:17:21.020Z,6.30
2023-02-19T15:18:26.512Z,5.93
2023-02-19T15:19:33.408Z,7.35
2023-02-19T15:20:38.210Z,6.78
2023-02-19T15:21:47.918Z,5.88